Leni P. — A8XW5 — position and weather

sailwx.info

Track history (hours):
 
Tides and Currents Weather Stations Pressure Air Temp Water Temp Dewpoint Dewpoint Depression Visibility Wind Speed Wind Dir Waves Ship Positions

Leni P.

Last reported at 2016-Jun-24 10:03 UTC. Time now 2016-Jun-26 06:32 UTC.
Position N 39°07' W 009°58'.

Length 274 m; draft 15.5 m.

Type: Tanker. MMSI: 636014986.

Date/timePositionNaut miles runAvg speedWind from/ knotsBaromVisibWave heightAir tempDewpointWater temp
2016-Jun-24 10:03N 39°07' W 009°58'611.3
2016-Jun-24 09:31N 39°01' W 009°58'1111.3
2016-Jun-24 08:33N 38°50' W 009°58'1111.3
2016-Jun-24 07:33N 38°39' W 009°56'3511.7
2016-Jun-24 04:32N 38°04' W 009°47'1211.7
2016-Jun-24 03:31N 37°53' W 009°43'1110.7
2016-Jun-24 02:29N 37°42' W 009°41'1111.3
2016-Jun-24 01:33N 37°31' W 009°38'1111.1
2016-Jun-24 00:32N 37°21' W 009°34'1311.3
2016-Jun-23 23:23N 37°08' W 009°31'1111.6
2016-Jun-23 22:28N 36°57' W 009°28'1011.2
2016-Jun-23 21:32N 36°48' W 009°23'1511.4
2016-Jun-23 20:15N 36°39' W 009°08'2011.7
2016-Jun-23 18:33N 36°33' W 008°44'1211.6
2016-Jun-23 17:33N 36°29' W 008°31'1211.8
2016-Jun-23 16:33N 36°25' W 008°17'1211.8
2016-Jun-23 15:32N 36°21' W 008°03'1211.9
2016-Jun-23 14:33N 36°17' W 007°49'1512.2
2016-Jun-23 13:21N 36°12' W 007°32'1012.5
2016-Jun-23 12:33N 36°09' W 007°21'1312.7
2016-Jun-23 11:32N 36°04' W 007°05'6911.5
2016-Jun-23 05:33N 35°57' W 005°41'1110.7
2016-Jun-23 04:33N 35°59' W 005°28'1010.0
2016-Jun-23 03:33N 36°02' W 005°16'15411.5
2016-Jun-22 14:10N 36°14' W 002°06'7011.9
2016-Jun-22 08:17N 36°32' W 000°42'6212.0
2016-Jun-22 03:09N 36°48' E 000°32'912.6
2016-Jun-22 02:24N 36°51' E 000°43'1012.2
2016-Jun-22 01:33N 36°54' E 000°56'2411.8
2016-Jun-21 23:31N 37°00' E 001°25'2311.8
2016-Jun-21 21:33N 37°06' E 001°53'1312.1
2016-Jun-21 20:30N 37°10' E 002°08'2512.2
2016-Jun-21 18:28N 37°16' E 002°38'1112.0
2016-Jun-21 17:33N 37°19' E 002°51'51511.2
2016-Jun-19 19:28N 36°41' E 013°34'1010.7
2016-Jun-19 18:33N 36°38' E 013°46'1110.7
2016-Jun-19 17:33N 36°35' E 013°59'1110.7
2016-Jun-19 16:33N 36°31' E 014°11'1010.3
2016-Jun-19 15:33N 36°28' E 014°23'1110.7
2016-Jun-19 14:33N 36°25' E 014°36'1111.5
2016-Jun-19 13:33N 36°24' E 014°50'1212.0
2016-Jun-19 12:32N 36°24' E 015°05'1211.9
2016-Jun-19 11:33N 36°23' E 015°20'11212.2
2016-Jun-19 02:23N 36°17' E 017°38'26512.1
2016-Jun-18 04:33N 36°03' E 023°06'4812.0
2016-Jun-18 00:33N 36°42' E 023°41'1312.5
2016-Jun-17 23:33N 36°53' E 023°46'1312.7
2016-Jun-17 22:33N 37°05' E 023°52'1313.0
2016-Jun-17 21:33N 37°17' E 023°59'1312.8
2016-Jun-17 20:33N 37°29' E 024°05'1712.6
2016-Jun-17 19:12N 37°44' E 024°16'912.7
2016-Jun-17 18:32N 37°48' E 024°25'4212.6
2016-Jun-17 15:12N 38°24' E 024°53'812.6
2016-Jun-17 14:33N 38°31' E 024°57'8912.1
2016-Jun-17 07:11N 39°52' E 025°46'812.3
2016-Jun-17 06:33N 39°57' E 025°53'1211.5
2016-Jun-17 05:33N 40°01' E 026°07'1611.5
2016-Jun-17 04:12N 40°12' E 026°23'2310.9
2016-Jun-17 02:08N 40°26' E 026°45'610.2
2016-Jun-17 01:33N 40°29' E 026°52'5 5.5
2016-Jun-17 00:33N 40°30' E 026°59'0 0.1
2016-Jun-16 23:33N 40°30' E 026°59'1 1.0
2016-Jun-16 22:32N 40°30' E 027°00'48811.0
2016-Jun-15 02:20N 44°13' E 036°48'1012.4
2016-Jun-15 01:33N 44°17' E 037°01'2512.4
2016-Jun-14 23:32N 44°29' E 037°32'1010.1
2016-Jun-14 22:33N 44°36' E 037°41'2 1.5
2016-Jun-14 21:33N 44°37' E 037°43'1 0.8
2016-Jun-14 20:33N 44°36' E 037°43'2 1.4
2016-Jun-14 19:27N 44°35' E 037°41'4 4.1
2016-Jun-14 18:33N 44°37' E 037°37'  
Track history (hours):
 
Tides and Currents Weather Stations Pressure Air Temp Water Temp Dewpoint Dewpoint Depression Visibility Wind Speed Wind Dir Waves Ship Positions

Leni P.

Last reported at 2016-Jun-24 10:03 UTC. Time now 2016-Jun-26 06:32 UTC.
Position N 39°07' W 009°58'.

Length 274 m; draft 15.5 m.

Type: Tanker. MMSI: 636014986.

Date/timePositionNaut miles runAvg speedWind from/ knotsBaromVisibWave heightAir tempDewpointWater temp
2016-Jun-24 10:03N 39°07' W 009°58'611.3
2016-Jun-24 09:31N 39°01' W 009°58'1111.3
2016-Jun-24 08:33N 38°50' W 009°58'1111.3
2016-Jun-24 07:33N 38°39' W 009°56'3511.7
2016-Jun-24 04:32N 38°04' W 009°47'1211.7
2016-Jun-24 03:31N 37°53' W 009°43'1110.7
2016-Jun-24 02:29N 37°42' W 009°41'1111.3
2016-Jun-24 01:33N 37°31' W 009°38'1111.1
2016-Jun-24 00:32N 37°21' W 009°34'1311.3
2016-Jun-23 23:23N 37°08' W 009°31'1111.6
2016-Jun-23 22:28N 36°57' W 009°28'1011.2
2016-Jun-23 21:32N 36°48' W 009°23'1511.4
2016-Jun-23 20:15N 36°39' W 009°08'2011.7
2016-Jun-23 18:33N 36°33' W 008°44'1211.6
2016-Jun-23 17:33N 36°29' W 008°31'1211.8
2016-Jun-23 16:33N 36°25' W 008°17'1211.8
2016-Jun-23 15:32N 36°21' W 008°03'1211.9
2016-Jun-23 14:33N 36°17' W 007°49'1512.2
2016-Jun-23 13:21N 36°12' W 007°32'1012.5
2016-Jun-23 12:33N 36°09' W 007°21'1312.7
2016-Jun-23 11:32N 36°04' W 007°05'6911.5
2016-Jun-23 05:33N 35°57' W 005°41'1110.7
2016-Jun-23 04:33N 35°59' W 005°28'1010.0
2016-Jun-23 03:33N 36°02' W 005°16'15411.5
2016-Jun-22 14:10N 36°14' W 002°06'7011.9
2016-Jun-22 08:17N 36°32' W 000°42'6212.0
2016-Jun-22 03:09N 36°48' E 000°32'912.6
2016-Jun-22 02:24N 36°51' E 000°43'1012.2
2016-Jun-22 01:33N 36°54' E 000°56'2411.8
2016-Jun-21 23:31N 37°00' E 001°25'2311.8
2016-Jun-21 21:33N 37°06' E 001°53'1312.1
2016-Jun-21 20:30N 37°10' E 002°08'2512.2
2016-Jun-21 18:28N 37°16' E 002°38'1112.0
2016-Jun-21 17:33N 37°19' E 002°51'51511.2
2016-Jun-19 19:28N 36°41' E 013°34'1010.7
2016-Jun-19 18:33N 36°38' E 013°46'1110.7
2016-Jun-19 17:33N 36°35' E 013°59'1110.7
2016-Jun-19 16:33N 36°31' E 014°11'1010.3
2016-Jun-19 15:33N 36°28' E 014°23'1110.7
2016-Jun-19 14:33N 36°25' E 014°36'1111.5
2016-Jun-19 13:33N 36°24' E 014°50'1212.0
2016-Jun-19 12:32N 36°24' E 015°05'1211.9
2016-Jun-19 11:33N 36°23' E 015°20'11212.2
2016-Jun-19 02:23N 36°17' E 017°38'26512.1
2016-Jun-18 04:33N 36°03' E 023°06'4812.0
2016-Jun-18 00:33N 36°42' E 023°41'1312.5
2016-Jun-17 23:33N 36°53' E 023°46'1312.7
2016-Jun-17 22:33N 37°05' E 023°52'1313.0
2016-Jun-17 21:33N 37°17' E 023°59'1312.8
2016-Jun-17 20:33N 37°29' E 024°05'1712.6
2016-Jun-17 19:12N 37°44' E 024°16'912.7
2016-Jun-17 18:32N 37°48' E 024°25'4212.6
2016-Jun-17 15:12N 38°24' E 024°53'812.6
2016-Jun-17 14:33N 38°31' E 024°57'8912.1
2016-Jun-17 07:11N 39°52' E 025°46'812.3
2016-Jun-17 06:33N 39°57' E 025°53'1211.5
2016-Jun-17 05:33N 40°01' E 026°07'1611.5
2016-Jun-17 04:12N 40°12' E 026°23'2310.9
2016-Jun-17 02:08N 40°26' E 026°45'610.2
2016-Jun-17 01:33N 40°29' E 026°52'5 5.5
2016-Jun-17 00:33N 40°30' E 026°59'0 0.1
2016-Jun-16 23:33N 40°30' E 026°59'1 1.0
2016-Jun-16 22:32N 40°30' E 027°00'48811.0
2016-Jun-15 02:20N 44°13' E 036°48'1012.4
2016-Jun-15 01:33N 44°17' E 037°01'2512.4
2016-Jun-14 23:32N 44°29' E 037°32'1010.1
2016-Jun-14 22:33N 44°36' E 037°41'2 1.5
2016-Jun-14 21:33N 44°37' E 037°43'1 0.8
2016-Jun-14 20:33N 44°36' E 037°43'2 1.4
2016-Jun-14 19:27N 44°35' E 037°41'4 4.1
2016-Jun-14 18:33N 44°37' E 037°37'  

Dump ship's entire track history